Aviation Digital Data Service (ADDS)

Aviation Digital Data Service (ADDS)

Output produced by TAFs form (0331 UTC 18 January 2012)
found at http://aviationweather.gov/adds/tafs/

RJFR 180300Z VRB01KT 9999 FEW040 BKN070 07/03 Q1021
RJFR 180200Z 00000KT 9999 FEW040 BKN070 07/03 Q1022
RJFR 180100Z 17002KT 9999 FEW030 BKN070 06/03 Q1022
RJFR 180000Z 00000KT 9999 FEW030 SCT080 BKN170 06/04 Q1022
RJFR 172300Z 16002KT CAVOK 04/02 Q1021
RJFR 172200Z 18005KT CAVOK 03/02 Q1021
RJFR 172100Z 17003KT 9999 FEW040 SCT/// 04/02 Q1020
RJFR 172000Z 09004KT 070V140 9999 FEW040 BKN/// 05/01 Q1020
RJFR 171900Z 08004KT 9999 FEW040 BKN/// 06/02 Q1020
RJFR 171800Z 12004KT 080V190 9999 FEW040 SCT/// 06/02 Q1020
RJFR 171700Z 12003KT 090V180 9999 FEW040 05/02 Q1020
RJFR 171600Z 19003KT 9999 FEW040 04/01 Q1020
RJFR 171500Z 17005KT 9999 FEW040 03/00 Q1020
RJFR 171400Z 21003KT CAVOK 05/02 Q1021
RJFR 171300Z 22003KT CAVOK 05/02 Q1020
RJFR 171200Z 29002KT CAVOK 05/01 Q1020
RJFR 171100Z 10005KT CAVOK 08/02 Q1020
RJFR 171000Z 09006KT CAVOK 08/01 Q1019
RJFR 170900Z VRB02KT 9999 FEW030 08/02 Q1019
RJFR 170800Z VRB01KT 9999 FEW040 08/M00 Q1019
RJFR 170700Z 16006KT 9999 FEW030 09/M01 Q1019
RJFR 170600Z 16007KT 9999 FEW030 08/M00 Q1019
RJFR 170500Z 16008KT 9999 FEW030 08/M01 Q1019
RJFR 170400Z 16006KT 9999 FEW030 08/M00 Q1019
RJFR 170300Z 17006KT 9999 FEW030 08/M00 Q1020
RJFR 170200Z 16005KT 130V200 9999 FEW030 08/01 Q1020
RJFR 170100Z 20004KT 9999 FEW030 SCT/// 06/02 Q1020
RJFR 170000Z 00000KT 9999 FEW025 SCT/// 05/02 Q1020
RJFR 162300Z 21003KT 9999 FEW015 03/01 Q1019
RJFR 162200Z 16005KT 9999 FEW020 02/00 Q1018
RJFR 162100Z VRB01KT 9999 FEW020 03/00 Q1018
RJFR 162000Z 27005KT 9999 FEW020 03/01 Q1018
RJFR 161900Z 33005KT 9999 FEW020 03/01 Q1017
RJFR 161800Z 30004KT 9999 FEW015 03/02 Q1017
RJFR 161700Z 33005KT 9999 FEW015 03/01 Q1017
RJFR 161600Z 30001KT 9999 FEW015 03/01 Q1016